地図

経路データ

SID SEASON NUMBER BASIN SUBBASIN NAME ISO_TIME NATURE LAT LON WMO_WIND WMO_PRES WMO_AGENCY TRACK_TYPE DIST2LAND LANDFALL IFLAG USA_AGENCY USA_ATCF_ID USA_LAT USA_LON USA_RECORD USA_STATUS USA_WIND USA_PRES USA_SSHS USA_R34_NE USA_R34_SE USA_R34_SW USA_R34_NW USA_R50_NE USA_R50_SE USA_R50_SW USA_R50_NW USA_R64_NE USA_R64_SE USA_R64_SW USA_R64_NW USA_POCI USA_ROCI USA_RMW USA_EYE TOKYO_LAT TOKYO_LON TOKYO_GRADE TOKYO_WIND TOKYO_PRES TOKYO_R50_DIR TOKYO_R50_LONG TOKYO_R50_SHORT TOKYO_R30_DIR TOKYO_R30_LONG TOKYO_R30_SHORT TOKYO_LAND CMA_LAT CMA_LON CMA_CAT CMA_WIND CMA_PRES HKO_LAT HKO_LON HKO_CAT HKO_WIND HKO_PRES NEWDELHI_LAT NEWDELHI_LON NEWDELHI_GRADE NEWDELHI_WIND NEWDELHI_PRES NEWDELHI_CI NEWDELHI_DP NEWDELHI_POCI REUNION_LAT REUNION_LON REUNION_TYPE REUNION_WIND REUNION_PRES REUNION_TNUM REUNION_CI REUNION_RMW REUNION_R34_NE REUNION_R34_SE REUNION_R34_SW REUNION_R34_NW REUNION_R50_NE REUNION_R50_SE REUNION_R50_SW REUNION_R50_NW REUNION_R64_NE REUNION_R64_SE REUNION_R64_SW REUNION_R64_NW BOM_LAT BOM_LON BOM_TYPE BOM_WIND BOM_PRES BOM_TNUM BOM_CI BOM_RMW BOM_R34_NE BOM_R34_SE BOM_R34_SW BOM_R34_NW BOM_R50_NE BOM_R50_SE BOM_R50_SW BOM_R50_NW BOM_R64_NE BOM_R64_SE BOM_R64_SW BOM_R64_NW BOM_ROCI BOM_POCI BOM_EYE BOM_POS_METHOD BOM_PRES_METHOD NADI_LAT NADI_LON NADI_CAT NADI_WIND NADI_PRES WELLINGTON_LAT WELLINGTON_LON WELLINGTON_WIND WELLINGTON_PRES DS824_LAT DS824_LON DS824_STAGE DS824_WIND DS824_PRES TD9636_LAT TD9636_LON TD9636_STAGE TD9636_WIND TD9636_PRES TD9635_LAT TD9635_LON TD9635_WIND TD9635_PRES TD9635_ROCI NEUMANN_LAT NEUMANN_LON NEUMANN_CLASS NEUMANN_WIND NEUMANN_PRES MLC_LAT MLC_LON MLC_CLASS MLC_WIND MLC_PRES USA_GUST BOM_GUST BOM_GUST_PER REUNION_GUST REUNION_GUST_PER USA_SEAHGT USA_SEARAD_NE USA_SEARAD_SE USA_SEARAD_SW USA_SEARAD_NW STORM_SPEED STORM_DIR
1932097S10054 1932 21 SI MM NOT_NAMED 1932-04-06 06:00:00 NR -9.70000 54.4000 reunion main 613 613 _____O________ -1 -9.70000 54.4000 99 9.90000 1 46
1932097S10054 1932 21 SI MM NOT_NAMED 1932-04-06 09:00:00 NR -9.66140 54.4338 main 613 613 _____P________ -1 -9.66140 54.4338 99 1 36
1932097S10054 1932 21 SI MM NOT_NAMED 1932-04-06 12:00:00 NR -9.62886 54.4596 main 628 628 _____P________ -1 -9.62886 54.4596 99 1 39
1932097S10054 1932 21 SI MM NOT_NAMED 1932-04-06 15:00:00 NR -9.60844 54.4694 main 628 628 _____P________ -1 -9.60844 54.4694 99 2 59
1932097S10054 1932 21 SI MM NOT_NAMED 1932-04-06 18:00:00 NR -9.54496 54.6043 main 643 638 _____P____O___ -1 -9.60620 54.4553 99 -9.30000 55.2000 4 1 70
1932097S10054 1932 21 SI MM NOT_NAMED 1932-04-06 21:00:00 NR -9.56359 54.5990 main 638 628 _____P____P___ -1 -9.62820 54.4094 99 -9.43438 54.9782 4 1 227
1932097S10054 1932 21 SI MM NOT_NAMED 1932-04-07 00:00:00 NR -9.63526 54.5042 main 628 613 _____P____P___ -1 -9.68048 54.3235 99 -9.57497 54.7450 4 3 234
1932097S10054 1932 21 SI MM NOT_NAMED 1932-04-07 03:00:00 NR -9.74858 54.3396 main 604 574 _____P____P___ -1 -9.76908 54.1898 99 -9.72808 54.4894 4 5 236
1932097S10054 1932 21 SI MM NOT_NAMED 1932-04-07 06:00:00 TS -9.90000 54.1111 reunion main 574 534 _____O___OO___ -1 -9.90000 54.0000 99 9.90000 -9.90000 54.2000 TC 65 -9.90000 54.2000 4 6 237
1932097S10054 1932 21 SI MM NOT_NAMED 1932-04-07 09:00:00 TS -10.0871 53.8189 main 534 495 _____P___PP___ -1 -10.0773 53.7504 99 -10.0901 53.8526 TC 65 -10.0954 53.8706 4 7 237
1932097S10054 1932 21 SI MM NOT_NAMED 1932-04-07 12:00:00 TS -10.3036 53.4888 main 495 455 _____P___OP___ -1 -10.2972 53.4543 99 -10.3000 53.5000 TC 65 -10.3126 53.5150 4 8 235
1932097S10054 1932 21 SI MM NOT_NAMED 1932-04-07 15:00:00 TS -10.5484 53.1413 main 446 400 _____P___PP___ -1 -10.5541 53.1295 99 -10.5425 53.1425 TC 65 -10.5485 53.1518 4 9 233
1932097S10054 1932 21 SI MM NOT_NAMED 1932-04-07 18:00:00 TS -10.8141 52.7979 main 400 353 _____P___OO___ -1 -10.8423 52.7938 99 -10.8000 52.8000 TC 65 -10.8000 52.8000 4 9 231
1932097S10054 1932 21 SI MM NOT_NAMED 1932-04-07 21:00:00 TS -11.0798 52.4688 main 353 314 _____P___PP___ -1 -11.1565 52.4649 99 -11.0424 52.4924 TC 65 -11.0404 52.4491 4 8 229
1932097S10054 1932 21 SI MM NOT_NAMED 1932-04-08 00:00:00 TS -11.3629 52.1595 main 307 268 _____P___OP___ -1 -11.4910 52.1610 99 -11.3000 52.2000 TC 65 -11.2976 52.1176 4 8 225
1932097S10054 1932 21 SI MM NOT_NAMED 1932-04-08 03:00:00 TS -11.6664 51.8682 main 261 215 _____P___PP___ -1 -11.8406 51.9000 99 -11.5775 51.8775 TC 65 -11.5810 51.8273 4 8 219
1932097S10054 1932 21 SI MM NOT_NAMED 1932-04-08 06:00:00 TS -12.0000 51.6333 reunion main 215 190 _____O___OO___ -1 -12.2000 51.7000 99 9.90000 -11.9000 51.6000 TC 65 -11.9000 51.6000 4 8 210
1932097S10054 1932 21 SI MM NOT_NAMED 1932-04-08 09:00:00 TS -12.3579 51.4603 main 186 166 _____P___PP___ -1 -12.5127 51.5480 99 -12.2850 51.4050 TC 65 -12.2760 51.4278 4 8 200
1932097S10054 1932 21 SI MM NOT_NAMED 1932-04-08 12:00:00 TS -12.7404 51.3555 main 166 144 _____P___OP___ -1 -12.8366 51.4438 99 -12.7000 51.3000 TC 65 -12.6848 51.3226 4 8 191
1932097S10054 1932 21 SI MM NOT_NAMED 1932-04-08 15:00:00 TS -13.1279 51.3119 main 144 134 _____P___PP___ -1 -13.1751 51.3922 99 -13.1075 51.2625 TC 65 -13.1011 51.2810 4 8 181
1932097S10054 1932 21 SI MM NOT_NAMED 1932-04-08 18:00:00 TS -13.5104 51.3327 main 134 130 _____P___OO___ -1 -13.5313 51.3982 99 -13.5000 51.3000 TC 65 -13.5000 51.3000 4 7 175
1932097S10054 1932 21 SI MM NOT_NAMED 1932-04-08 21:00:00 TS -13.8543 51.3773 main 140 140 _____P___PP___ -1 -13.9087 51.4668 99 -13.8650 51.3775 TC 65 -13.7891 51.2877 4 7 168
1932097S10054 1932 21 SI MM NOT_NAMED 1932-04-09 00:00:00 TS -14.1923 51.4819 main 147 139 _____P___OP___ -1 -14.3105 51.6031 99 -14.2000 51.5000 TC 65 -14.0665 51.3427 4 7 160
1932097S10054 1932 21 SI MM NOT_NAMED 1932-04-09 03:00:00 TS -14.5243 51.6298 main 141 140 _____P___PP___ -1 -14.7399 51.8124 99 -14.4472 51.5757 TC 65 -14.3856 51.5012 4 8 151
1932097S10054 1932 21 SI MM NOT_NAMED 1932-04-09 06:00:00 TS -14.9333 51.9000 reunion main 154 152 _____O___OO___ -1 -15.2000 52.1000 99 9.90000 -14.8000 51.8000 TC 65 -14.8000 51.8000 4 12 145
1932097S10054 1932 21 SI MM NOT_NAMED 1932-04-09 09:00:00 TS -15.5198 52.3524 main 204 204 _____P___PP___ -1 -15.7245 52.4607 99 -15.4477 52.3246 TC 65 -15.3873 52.2718 4 16 142
1932097S10054 1932 21 SI MM NOT_NAMED 1932-04-09 12:00:00 TS -16.1843 52.9303 main 272 272 _____P___OP___ -1 -16.2845 52.9076 99 -16.2000 53.0000 TC 65 -16.0685 52.8833 4 18 139
1932097S10054 1932 21 SI MM NOT_NAMED 1932-04-09 15:00:00 TS -16.8384 53.5494 main 356 356 _____P___PP___ -1 -16.8675 53.4267 99 -16.8574 53.6429 TC 65 -16.7904 53.5785 4 18 137
1932097S10054 1932 21 SI MM NOT_NAMED 1932-04-09 18:00:00 TS -17.4871 54.2013 main 408 328 _____P___OO___ -1 -17.4612 54.0039 99 -17.5000 54.3000 TC 65 -17.5000 54.3000 4 18 136
1932097S10054 1932 21 SI MM NOT_NAMED 1932-04-09 21:00:00 TS -18.1266 54.8468 main 328 257 _____P___PP___ -1 -18.0533 54.6247 99 -18.1647 54.9429 TC 65 -18.1619 54.9727 4 18 135
1932097S10054 1932 21 SI MM NOT_NAMED 1932-04-10 00:00:00 TS -18.7429 55.5105 main 257 162 _____P___OP___ -1 -18.6316 55.2745 99 -18.8000 55.6000 TC 65 -18.7971 55.6571 4 18 133
1932097S10054 1932 21 SI MM NOT_NAMED 1932-04-10 03:00:00 TS -19.3211 56.1945 main 162 80 _____P___PP___ -1 -19.1844 55.9380 99 -19.3950 56.3075 TC 65 -19.3838 56.3381 4 17 130
1932097S10054 1932 21 SI MM NOT_NAMED 1932-04-10 06:00:00 TS -19.8333 56.8667 reunion main 71 10 _____O___OO___ -1 -19.7000 56.6000 99 9.90000 -19.9000 57.0000 TC 65 -19.9000 57.0000 4 15 128
1932097S10054 1932 21 SI MM NOT_NAMED 1932-04-10 09:00:00 TS -20.2545 57.4816 main 0 0 _____P___PP___ -1 -20.1550 57.2014 99 -20.2796 57.6157 TC 65 -20.3290 57.6277 4 14 125
1932097S10054 1932 21 SI MM NOT_NAMED 1932-04-10 12:00:00 TS -20.6226 58.0813 main 43 43 _____P___OP___ -1 -20.5790 57.8113 99 -20.6000 58.2000 TC 65 -20.6887 58.2325 4 13 123
1932097S10054 1932 21 SI MM NOT_NAMED 1932-04-10 15:00:00 TS -20.9785 58.6852 main 118 118 _____P___PP___ -1 -20.9741 58.4269 99 -20.9574 58.8076 TC 65 -21.0041 58.8210 4 13 122
1932097S10054 1932 21 SI MM NOT_NAMED 1932-04-10 18:00:00 TS -21.3143 59.2819 main 188 188 _____P___OO___ -1 -21.3429 59.0458 99 -21.3000 59.4000 TC 65 -21.3000 59.4000 4 13 121
1932097S10054 1932 21 SI MM NOT_NAMED 1932-04-10 21:00:00 TS -21.6360 59.8623 main 259 259 _____P___PP___ -1 -21.6875 59.6653 99 -21.6072 59.9504 TC 65 -21.6133 59.9712 4 12 120
1932097S10054 1932 21 SI MM NOT_NAMED 1932-04-11 00:00:00 TS -21.9413 60.4398 main 320 320 _____P___OP___ -1 -22.0103 60.2826 99 -21.9000 60.5000 TC 65 -21.9135 60.5367 4 12 119
1932097S10054 1932 21 SI MM NOT_NAMED 1932-04-11 03:00:00 TS -22.2401 61.0297 main 390 390 _____P___PP___ -1 -22.3136 60.8951 99 -22.1998 61.0853 TC 65 -22.2070 61.1088 4 13 118
1932097S10054 1932 21 SI MM NOT_NAMED 1932-04-11 06:00:00 TS -22.5333 61.6333 reunion main 461 461 _____O___OO___ -1 -22.6000 61.5000 99 9.90000 -22.5000 61.7000 TC 65 -22.5000 61.7000 4 13 117
1932097S10054 1932 21 SI MM NOT_NAMED 1932-04-11 09:00:00 TS -22.8383 62.2769 main 540 540 _____P___PP___ -1 -22.9155 62.1629 99 -22.7998 62.3427 TC 65 -22.7995 62.3251 4 13 117
1932097S10054 1932 21 SI MM NOT_NAMED 1932-04-11 12:00:00 TS -23.1378 62.9331 main 610 610 _____P___OP___ -1 -23.2141 62.8283 99 -23.1000 63.0000 TC 65 -23.0993 62.9710 4 13 116
1932097S10054 1932 21 SI MM NOT_NAMED 1932-04-11 15:00:00 TS -23.4307 63.5881 main 689 689 _____P___PP___ -1 -23.4929 63.4825 99 -23.3997 63.6503 TC 65 -23.3994 63.6315 4 13 116
1932097S10054 1932 21 SI MM NOT_NAMED 1932-04-11 18:00:00 TS -23.7164 64.2373 main 758 758 _____P___OO___ -1 -23.7491 64.1118 99 -23.7000 64.3000 TC 65 -23.7000 64.3000 4 13 116
1932097S10054 1932 21 SI MM NOT_NAMED 1932-04-11 21:00:00 TS -23.9936 64.8722 main 837 837 _____P___PP___ -1 -23.9801 64.7024 99 -23.9996 64.9429 TC 65 -24.0012 64.9714 4 12 116
1932097S10054 1932 21 SI MM NOT_NAMED 1932-04-12 00:00:00 TS -24.2542 65.4695 main 906 906 _____P___OP___ -1 -24.1838 65.2401 99 -24.3000 65.6000 TC 65 -24.3022 65.6449 4 11 115
1932097S10054 1932 21 SI MM NOT_NAMED 1932-04-12 03:00:00 TS -24.4796 66.0079 main 962 962 _____P___PP___ -1 -24.3577 65.7107 99 -24.6007 66.2893 TC 65 -24.6022 66.3210 4 9 114
1932097S10054 1932 21 SI MM NOT_NAMED 1932-04-12 06:00:00 TS -24.6333 66.4000 reunion main 1003 1003 _____O___OO___ -1 -24.5000 66.1000 99 9.90000 -24.9000 67.0000 TC 65 -24.9000 67.0000 4 4 110
1932097S10054 1932 21 SI MM NOT_NAMED 1932-04-12 09:00:00 NR -24.6096 66.3980 main 1003 1003 _____P________ -1 -24.6096 66.3980 99 TC 4 2 106
1932097S10054 1932 21 SI MM NOT_NAMED 1932-04-12 12:00:00 NR -24.6900 66.6120 main 1026 1026 _____P________ -1 -24.6900 66.6120 99 4 4 113
1932097S10054 1932 21 SI MM NOT_NAMED 1932-04-12 15:00:00 NR -24.7457 66.7539 main 1044 1044 _____P________ -1 -24.7457 66.7539 99 4 2 114
1932097S10054 1932 21 SI MM NOT_NAMED 1932-04-12 18:00:00 NR -24.7810 66.8356 main 1049 1049 _____P________ -1 -24.7810 66.8356 99 1 117
1932097S10054 1932 21 SI MM NOT_NAMED 1932-04-12 21:00:00 NR -24.8000 66.8689 main 1058 1058 _____P________ -1 -24.8000 66.8689 99 0 0
1932097S10054 1932 21 SI MM NOT_NAMED 1932-04-13 00:00:00 NR -24.8067 66.8661 main 1058 1049 _____P________ -1 -24.8067 66.8661 99 0 0
1932097S10054 1932 21 SI MM NOT_NAMED 1932-04-13 03:00:00 NR -24.8054 66.8391 main 1049 1049 _____P________ -1 -24.8054 66.8391 99 1 277
1932097S10054 1932 21 SI MM NOT_NAMED 1932-04-13 06:00:00 NR -24.8000 66.8000 reunion main 1049 _____O________ -1 -24.8000 66.8000 99 9.90000 1 278

IBTrACS Databaseについて

本データベースは、米国NOAAが公開する1842年以降の世界の熱帯低気圧のベストトラックデータアーカイブInternational Best Track Archive for Climate Stewardship (IBTrACS)を、ウェブで閲覧しやすい形式に変換したものです。

最終更新日:2021-12-06